createdAt,value
2023-03-17T00:01:24.062Z,77.02
2023-03-17T00:03:52.082Z,77.24
2023-03-17T00:06:29.542Z,77.29
2023-03-17T00:08:58.354Z,76.92
2023-03-17T00:11:27.737Z,76.70
2023-03-17T00:13:55.593Z,77.04
2023-03-17T00:16:25.847Z,76.87
2023-03-17T00:18:55.128Z,76.87
2023-03-17T00:21:26.058Z,77.11
2023-03-17T00:23:55.071Z,76.98
2023-03-17T00:26:24.245Z,77.22
2023-03-17T00:28:53.469Z,77.60
2023-03-17T00:31:24.655Z,77.52
2023-03-17T00:33:54.306Z,77.44
2023-03-17T00:36:24.143Z,77.57
2023-03-17T00:38:52.921Z,77.70
2023-03-17T00:41:20.974Z,77.68
2023-03-17T00:43:48.955Z,77.92
2023-03-17T00:46:18.798Z,78.25
2023-03-17T00:48:47.034Z,78.51
2023-03-17T00:51:18.385Z,78.72
2023-03-17T00:53:46.858Z,79.02
2023-03-17T00:56:19.541Z,79.02
2023-03-17T00:58:48.326Z,79.03
2023-03-17T01:01:18.470Z,79.21
2023-03-17T01:03:48.321Z,79.43
2023-03-17T01:06:16.749Z,79.12
2023-03-17T01:08:45.365Z,78.92
2023-03-17T01:11:16.233Z,78.92
2023-03-17T01:13:44.950Z,79.01
2023-03-17T01:16:13.375Z,78.80
2023-03-17T01:18:41.571Z,78.89
2023-03-17T01:21:09.800Z,79.11
2023-03-17T01:23:38.163Z,79.23
2023-03-17T01:26:07.263Z,79.26
2023-03-17T01:28:35.949Z,79.44
2023-03-17T01:31:05.188Z,79.53
2023-03-17T01:33:33.933Z,79.70
2023-03-17T01:36:02.134Z,79.72
2023-03-17T01:38:30.380Z,79.53
2023-03-17T01:40:58.432Z,79.43
2023-03-17T01:43:30.942Z,79.02
2023-03-17T01:46:12.447Z,79.01
2023-03-17T01:48:51.341Z,78.91
2023-03-17T01:51:24.747Z,79.43
2023-03-17T01:53:53.724Z,79.31
2023-03-17T01:56:21.802Z,79.52
2023-03-17T01:58:52.131Z,79.70
2023-03-17T02:01:24.287Z,79.91
2023-03-17T02:03:53.624Z,79.85
2023-03-17T02:06:22.494Z,79.79
2023-03-17T02:08:50.557Z,79.91
2023-03-17T02:11:19.047Z,79.93
2023-03-17T02:13:47.014Z,79.75
2023-03-17T02:16:16.255Z,79.30
2023-03-17T02:18:45.214Z,78.91
2023-03-17T02:21:33.973Z,78.48
2023-03-17T02:24:03.261Z,78.27
2023-03-17T02:26:33.589Z,77.66
2023-03-17T02:29:02.068Z,76.96
2023-03-17T02:31:30.449Z,76.77
2023-03-17T02:33:58.415Z,76.70
2023-03-17T02:36:26.300Z,76.70
2023-03-17T02:38:54.357Z,76.72
2023-03-17T02:41:22.169Z,77.18
2023-03-17T02:43:50.190Z,77.53
2023-03-17T02:46:18.474Z,77.91
2023-03-17T02:48:46.625Z,77.91
2023-03-17T02:51:14.727Z,77.94
2023-03-17T02:53:42.686Z,77.55
2023-03-17T02:56:10.662Z,77.17
2023-03-17T02:58:38.623Z,77.07
2023-03-17T03:01:06.668Z,77.33
2023-03-17T03:03:34.774Z,76.62
2023-03-17T03:06:03.275Z,76.23
2023-03-17T03:08:31.220Z,75.68
2023-03-17T03:11:00.633Z,74.97
2023-03-17T03:13:28.902Z,74.47
2023-03-17T03:15:56.975Z,74.83
2023-03-17T03:18:24.997Z,75.04
2023-03-17T03:20:53.026Z,75.05
2023-03-17T03:23:21.088Z,75.11
2023-03-17T03:25:49.161Z,75.15
2023-03-17T03:28:17.028Z,75.19
2023-03-17T03:30:45.756Z,75.24
2023-03-17T03:33:14.444Z,75.84
2023-03-17T03:35:43.398Z,76.28
2023-03-17T03:38:11.981Z,76.45
2023-03-17T03:40:39.966Z,76.67
2023-03-17T03:43:22.054Z,76.94
2023-03-17T03:45:51.884Z,77.41
2023-03-17T03:48:19.830Z,77.28
2023-03-17T03:50:47.939Z,77.17
2023-03-17T03:53:15.805Z,77.25
2023-03-17T03:55:43.661Z,77.13
2023-03-17T03:58:11.607Z,77.34
2023-03-17T04:00:39.780Z,77.47
2023-03-17T04:03:07.864Z,77.63
2023-03-17T04:05:36.428Z,77.43
2023-03-17T04:08:04.417Z,76.59
2023-03-17T04:10:32.747Z,75.26
2023-03-17T04:13:01.775Z,75.14
2023-03-17T04:15:29.750Z,75.76
2023-03-17T04:17:57.586Z,76.09
2023-03-17T04:20:25.680Z,76.75
2023-03-17T04:22:53.657Z,77.43
2023-03-17T04:25:21.922Z,77.66
2023-03-17T04:27:49.741Z,77.76
2023-03-17T04:30:17.973Z,77.89
2023-03-17T04:32:46.607Z,77.91
2023-03-17T04:35:16.576Z,78.07
2023-03-17T04:37:44.950Z,78.24
2023-03-17T04:40:13.791Z,78.51
2023-03-17T04:42:42.422Z,78.37
2023-03-17T04:45:12.053Z,78.02
2023-03-17T04:47:39.942Z,78.26
2023-03-17T04:50:09.016Z,78.30
2023-03-17T04:52:37.596Z,78.36
2023-03-17T04:55:08.391Z,78.39
2023-03-17T04:57:36.967Z,78.48
2023-03-17T05:00:06.366Z,78.49
2023-03-17T05:02:34.470Z,78.33
2023-03-17T05:05:02.886Z,78.45
2023-03-17T05:07:33.873Z,78.42
2023-03-17T05:10:02.373Z,78.57
2023-03-17T05:12:30.656Z,78.41
2023-03-17T05:14:58.943Z,78.29
2023-03-17T05:17:27.112Z,78.19
2023-03-17T05:19:55.069Z,77.85
2023-03-17T05:22:23.141Z,77.86
2023-03-17T05:24:51.008Z,77.90
2023-03-17T05:27:18.946Z,78.00
2023-03-17T05:29:47.766Z,77.76
2023-03-17T05:32:15.841Z,77.73
2023-03-17T05:34:45.270Z,77.46
2023-03-17T05:37:14.336Z,77.13
2023-03-17T05:39:42.232Z,77.26
2023-03-17T05:42:10.295Z,77.35
2023-03-17T05:44:38.350Z,77.06
2023-03-17T05:47:08.200Z,77.01
2023-03-17T05:49:36.337Z,76.79
2023-03-17T05:52:04.309Z,76.57
2023-03-17T05:54:32.278Z,76.85
2023-03-17T05:57:00.248Z,76.81
2023-03-17T05:59:28.225Z,76.58
2023-03-17T06:01:56.389Z,76.43
2023-03-17T06:04:24.365Z,76.14
2023-03-17T06:06:52.578Z,76.25
2023-03-17T06:09:20.508Z,76.22
2023-03-17T06:11:48.474Z,75.69
2023-03-17T06:14:16.443Z,75.10
2023-03-17T06:16:44.618Z,74.72
2023-03-17T06:19:12.453Z,74.32
2023-03-17T06:21:40.585Z,72.78
2023-03-17T06:24:08.960Z,72.04
2023-03-17T06:26:37.631Z,69.05
2023-03-17T06:29:09.196Z,68.71
2023-03-17T06:31:37.322Z,68.12
2023-03-17T06:34:05.657Z,68.33
2023-03-17T06:36:33.821Z,68.49
2023-03-17T06:39:02.283Z,68.50
2023-03-17T06:41:30.251Z,66.68
2023-03-17T06:43:58.201Z,65.44
2023-03-17T06:46:26.255Z,65.28
2023-03-17T06:48:54.468Z,64.19
2023-03-17T06:51:22.334Z,63.57
2023-03-17T06:53:50.306Z,62.06
2023-03-17T06:56:29.547Z,61.93
2023-03-17T06:58:58.433Z,63.02
2023-03-17T07:01:27.921Z,59.03
2023-03-17T07:03:56.414Z,56.77
2023-03-17T07:06:24.308Z,56.61
2023-03-17T07:08:52.453Z,55.33
2023-03-17T07:11:20.839Z,56.67
2023-03-17T07:13:48.636Z,58.30
2023-03-17T07:16:19.602Z,57.51
2023-03-17T07:18:48.438Z,54.92
2023-03-17T07:21:16.730Z,55.53
2023-03-17T07:23:44.881Z,54.16
2023-03-17T07:26:12.827Z,56.03
2023-03-17T07:28:40.817Z,54.78
2023-03-17T07:31:09.689Z,53.96
2023-03-17T07:33:38.291Z,53.92
2023-03-17T07:36:07.483Z,55.91
2023-03-17T07:38:36.284Z,51.83
2023-03-17T07:41:05.078Z,51.16
2023-03-17T07:43:33.564Z,51.64
2023-03-17T07:46:01.707Z,52.05
2023-03-17T07:48:31.331Z,54.39
2023-03-17T07:50:59.508Z,53.49
2023-03-17T07:53:27.683Z,52.63
2023-03-17T07:55:55.962Z,54.85
2023-03-17T07:58:23.833Z,50.15
2023-03-17T08:00:52.002Z,49.62
2023-03-17T08:03:20.017Z,49.21
2023-03-17T08:05:51.721Z,47.52
2023-03-17T08:08:22.359Z,44.94
2023-03-17T08:10:51.023Z,47.66
2023-03-17T08:13:20.012Z,47.62
2023-03-17T08:15:47.912Z,47.79
2023-03-17T08:18:15.945Z,45.04
2023-03-17T08:20:44.003Z,45.24
2023-03-17T08:23:11.914Z,44.62
2023-03-17T08:25:40.022Z,46.43
2023-03-17T08:28:08.187Z,46.21
2023-03-17T08:30:37.985Z,46.52
2023-03-17T08:33:06.251Z,44.16
2023-03-17T08:35:34.745Z,44.00
2023-03-17T08:38:03.731Z,43.50
2023-03-17T08:40:32.030Z,43.82
2023-03-17T08:43:00.568Z,43.69
2023-03-17T08:45:28.590Z,43.07
2023-03-17T08:47:56.750Z,44.93
2023-03-17T08:50:25.341Z,43.56
2023-03-17T08:52:54.508Z,39.53
2023-03-17T08:55:22.484Z,42.00
2023-03-17T08:57:50.460Z,47.47
2023-03-17T09:00:20.468Z,44.66
2023-03-17T09:02:48.909Z,41.26
2023-03-17T09:05:17.802Z,41.18
2023-03-17T09:07:45.968Z,40.63
2023-03-17T09:10:15.059Z,40.96
2023-03-17T09:12:43.079Z,39.65
2023-03-17T09:15:12.039Z,39.58
2023-03-17T09:17:40.049Z,38.25
2023-03-17T09:20:08.552Z,40.03
2023-03-17T09:22:37.009Z,39.07
2023-03-17T09:25:05.284Z,38.84
2023-03-17T09:27:33.248Z,39.78
2023-03-17T09:30:01.221Z,40.67
2023-03-17T09:32:29.205Z,42.00
2023-03-17T09:34:57.784Z,41.71
2023-03-17T09:37:26.356Z,42.01
2023-03-17T09:39:54.163Z,40.97
2023-03-17T09:42:36.533Z,41.55
2023-03-17T09:45:23.553Z,41.89
2023-03-17T09:47:51.519Z,41.02
2023-03-17T09:50:24.040Z,41.33
2023-03-17T09:52:55.551Z,42.59
2023-03-17T09:55:28.236Z,42.07
2023-03-17T09:58:01.057Z,41.94
2023-03-17T10:00:31.304Z,41.36
2023-03-17T10:03:00.020Z,39.74
2023-03-17T10:05:30.249Z,38.44
2023-03-17T10:08:22.739Z,37.38
2023-03-17T10:11:00.119Z,37.25
2023-03-17T10:13:28.151Z,35.14
2023-03-17T10:16:28.522Z,35.35
2023-03-17T10:18:58.700Z,38.65
2023-03-17T10:21:32.992Z,35.98
2023-03-17T10:24:03.256Z,35.50
2023-03-17T10:26:33.878Z,33.90
2023-03-17T10:29:04.433Z,34.52
2023-03-17T10:31:34.979Z,38.60
2023-03-17T10:34:20.405Z,35.37
2023-03-17T10:36:55.577Z,37.82
2023-03-17T10:39:24.780Z,34.04
2023-03-17T10:41:59.696Z,33.38
2023-03-17T10:44:39.832Z,31.23
2023-03-17T10:47:20.613Z,30.50
2023-03-17T10:49:49.184Z,29.40
2023-03-17T10:52:23.556Z,29.46
2023-03-17T10:54:51.487Z,29.72
2023-03-17T10:57:20.087Z,30.48
2023-03-17T10:59:49.456Z,35.16
2023-03-17T11:02:25.910Z,36.33
2023-03-17T11:05:05.286Z,34.76
2023-03-17T11:07:40.199Z,33.20
2023-03-17T11:10:17.538Z,34.30
2023-03-17T11:12:48.606Z,34.93
2023-03-17T11:15:18.045Z,33.07
2023-03-17T11:17:56.136Z,37.37
2023-03-17T11:20:24.113Z,33.75
2023-03-17T11:23:00.917Z,29.92
2023-03-17T11:25:29.759Z,29.54
2023-03-17T11:28:17.068Z,28.49
2023-03-17T11:30:54.395Z,29.62
2023-03-17T11:33:41.201Z,31.46
2023-03-17T11:36:28.215Z,29.83
2023-03-17T11:38:56.338Z,29.38
2023-03-17T11:41:28.577Z,28.92
2023-03-17T11:44:15.842Z,30.21
2023-03-17T11:47:19.594Z,28.49
2023-03-17T11:50:10.295Z,26.62
2023-03-17T11:52:58.432Z,25.78
2023-03-17T11:55:36.558Z,26.13
2023-03-17T11:58:13.575Z,26.97
2023-03-17T12:00:53.065Z,26.74
2023-03-17T12:03:36.719Z,27.24
2023-03-17T12:06:07.645Z,27.35
2023-03-17T12:08:36.031Z,26.95
2023-03-17T12:11:07.052Z,25.12
2023-03-17T12:13:40.327Z,25.91
2023-03-17T12:16:29.619Z,24.43
2023-03-17T12:19:16.984Z,26.24
2023-03-17T12:21:54.442Z,24.73
2023-03-17T12:24:35.090Z,22.63
2023-03-17T12:27:07.649Z,23.46
2023-03-17T12:29:52.616Z,24.15
2023-03-17T12:32:26.722Z,23.74
2023-03-17T12:34:57.477Z,24.85
2023-03-17T12:37:27.838Z,23.21
2023-03-17T12:40:07.466Z,23.51
2023-03-17T12:42:38.816Z,22.62
2023-03-17T12:45:09.541Z,23.09
2023-03-17T12:47:52.783Z,23.85
2023-03-17T12:50:23.714Z,24.36
2023-03-17T12:52:53.218Z,22.41
2023-03-17T12:55:24.565Z,22.21
2023-03-17T12:58:03.936Z,23.09
2023-03-17T13:00:33.550Z,24.29
2023-03-17T13:03:20.476Z,20.62
2023-03-17T13:05:51.153Z,20.01
2023-03-17T13:08:24.446Z,19.99
2023-03-17T13:11:12.791Z,18.42
2023-03-17T13:13:44.786Z,17.46
2023-03-17T13:16:37.644Z,18.54
2023-03-17T13:19:20.229Z,19.64
2023-03-17T13:21:53.013Z,17.64
2023-03-17T13:24:22.411Z,16.91
2023-03-17T13:26:50.270Z,18.94
2023-03-17T13:29:33.547Z,17.18
2023-03-17T13:32:20.015Z,16.20
2023-03-17T13:34:49.917Z,17.65
2023-03-17T13:37:36.492Z,17.37
2023-03-17T13:40:22.213Z,18.87
2023-03-17T13:42:50.194Z,19.43
2023-03-17T13:45:32.350Z,20.67
2023-03-17T13:48:19.103Z,21.69
2023-03-17T13:50:47.578Z,20.92
2023-03-17T13:53:16.061Z,20.62
2023-03-17T13:56:03.848Z,20.54
2023-03-17T13:58:33.399Z,19.89
2023-03-17T14:01:05.489Z,19.47
2023-03-17T14:03:42.191Z,19.31
2023-03-17T14:06:12.337Z,18.59
2023-03-17T14:08:49.347Z,18.49
2023-03-17T14:11:24.881Z,17.89
2023-03-17T14:13:56.231Z,18.39
2023-03-17T14:16:30.198Z,19.75
2023-03-17T14:19:11.127Z,20.12
2023-03-17T14:21:39.192Z,19.35
2023-03-17T14:24:29.926Z,19.24
2023-03-17T14:26:57.964Z,19.56
2023-03-17T14:29:29.762Z,19.94
2023-03-17T14:32:12.141Z,20.63
2023-03-17T14:34:48.424Z,20.14
2023-03-17T14:37:16.672Z,20.67
2023-03-17T14:39:46.489Z,20.90
2023-03-17T14:42:14.764Z,22.05
2023-03-17T14:44:43.255Z,22.37
2023-03-17T14:47:23.711Z,22.68
2023-03-17T14:49:53.522Z,22.74
2023-03-17T14:52:23.945Z,23.53
2023-03-17T14:54:53.718Z,24.24
2023-03-17T14:57:23.878Z,24.82
2023-03-17T14:59:59.750Z,25.69
2023-03-17T15:02:33.298Z,26.09
2023-03-17T15:05:20.055Z,26.52
2023-03-17T15:07:48.021Z,26.92
2023-03-17T15:10:20.706Z,26.54
2023-03-17T15:12:49.083Z,26.62
2023-03-17T15:15:22.779Z,26.79
2023-03-17T15:17:52.199Z,26.99
2023-03-17T15:20:20.868Z,27.83
2023-03-17T15:22:56.203Z,28.18
2023-03-17T15:25:24.079Z,28.32
2023-03-17T15:27:52.558Z,28.52
2023-03-17T15:30:21.249Z,28.44
2023-03-17T15:33:00.709Z,28.41
2023-03-17T15:35:29.067Z,28.64
2023-03-17T15:37:57.140Z,29.04
2023-03-17T15:40:25.102Z,29.18
2023-03-17T15:42:52.930Z,28.96
2023-03-17T15:45:21.142Z,29.14
2023-03-17T15:47:49.335Z,28.81
2023-03-17T15:50:24.224Z,28.62
2023-03-17T15:52:58.790Z,28.60
2023-03-17T15:55:31.284Z,28.46
2023-03-17T15:57:59.328Z,28.01
2023-03-17T16:00:29.911Z,27.93
2023-03-17T16:02:59.858Z,27.83
2023-03-17T16:05:29.546Z,28.41
2023-03-17T16:07:57.841Z,28.38
2023-03-17T16:10:27.153Z,28.22
2023-03-17T16:12:55.010Z,28.50
2023-03-17T16:15:24.529Z,29.03
2023-03-17T16:17:54.664Z,29.35
2023-03-17T16:20:22.710Z,29.93
2023-03-17T16:22:52.016Z,31.99
2023-03-17T16:25:25.620Z,31.24
2023-03-17T16:27:54.812Z,31.30
2023-03-17T16:30:24.826Z,30.47
2023-03-17T16:32:53.223Z,30.77
2023-03-17T16:35:22.413Z,31.65
2023-03-17T16:37:52.526Z,32.00
2023-03-17T16:40:22.549Z,32.33
2023-03-17T16:42:50.622Z,32.78
2023-03-17T16:45:28.724Z,33.40
2023-03-17T16:47:57.221Z,33.68
2023-03-17T16:50:26.815Z,34.02
2023-03-17T16:52:54.811Z,34.46
2023-03-17T16:55:24.028Z,34.91
2023-03-17T16:57:53.908Z,35.31
2023-03-17T17:00:27.231Z,35.68
2023-03-17T17:02:55.821Z,36.15
2023-03-17T17:05:25.082Z,37.50
2023-03-17T17:07:56.152Z,39.12
2023-03-17T17:10:25.630Z,39.03
2023-03-17T17:12:53.931Z,38.22
2023-03-17T17:15:22.603Z,38.81
2023-03-17T17:17:52.268Z,40.27
2023-03-17T17:20:21.881Z,40.07
2023-03-17T17:22:50.700Z,41.29
2023-03-17T17:25:18.670Z,41.76
2023-03-17T17:27:47.364Z,41.97
2023-03-17T17:30:17.926Z,41.81
2023-03-17T17:32:46.266Z,42.18
2023-03-17T17:35:15.086Z,42.28
2023-03-17T17:37:42.993Z,42.34
2023-03-17T17:40:13.081Z,42.55
2023-03-17T17:42:41.216Z,42.99
2023-03-17T17:45:10.412Z,43.33
2023-03-17T17:47:38.375Z,43.73
2023-03-17T17:50:07.316Z,42.69
2023-03-17T17:52:35.351Z,43.17
2023-03-17T17:55:03.725Z,44.76
2023-03-17T17:57:31.691Z,44.59
2023-03-17T17:59:59.702Z,43.69
2023-03-17T18:02:27.638Z,44.14
2023-03-17T18:04:55.946Z,44.87
2023-03-17T18:07:23.982Z,45.64
2023-03-17T18:09:51.940Z,46.22
2023-03-17T18:12:19.807Z,46.50
2023-03-17T18:14:47.795Z,46.43
2023-03-17T18:17:21.791Z,46.29
2023-03-17T18:19:50.681Z,46.47
2023-03-17T18:22:18.651Z,47.41
2023-03-17T18:24:46.614Z,47.40
2023-03-17T18:27:15.407Z,47.78
2023-03-17T18:29:43.820Z,48.19
2023-03-17T18:32:12.387Z,48.67
2023-03-17T18:34:45.261Z,48.98
2023-03-17T18:37:15.581Z,48.90
2023-03-17T18:39:48.387Z,48.39
2023-03-17T18:42:19.725Z,49.15
2023-03-17T18:44:47.792Z,49.35
2023-03-17T18:47:16.578Z,50.35
2023-03-17T18:49:47.051Z,50.01
2023-03-17T18:52:15.281Z,49.41
2023-03-17T18:54:43.245Z,49.78
2023-03-17T18:57:11.220Z,49.83
2023-03-17T18:59:39.900Z,50.90
2023-03-17T19:02:08.575Z,51.50
2023-03-17T19:04:36.654Z,51.64
2023-03-17T19:07:04.538Z,51.27
2023-03-17T19:09:33.020Z,51.49
2023-03-17T19:12:01.177Z,51.78
2023-03-17T19:14:29.293Z,51.90
2023-03-17T19:16:57.236Z,52.75
2023-03-17T19:19:25.196Z,52.55
2023-03-17T19:21:53.162Z,52.81
2023-03-17T19:24:21.357Z,53.45
2023-03-17T19:26:49.509Z,53.92
2023-03-17T19:29:17.483Z,54.23
2023-03-17T19:31:48.365Z,54.31
2023-03-17T19:34:19.455Z,54.02
2023-03-17T19:36:47.429Z,53.56
2023-03-17T19:39:15.675Z,53.76
2023-03-17T19:41:43.981Z,53.78
2023-03-17T19:44:12.261Z,52.36
2023-03-17T19:46:40.532Z,52.07
2023-03-17T19:49:08.353Z,50.60
2023-03-17T19:51:36.993Z,51.56
2023-03-17T19:54:05.572Z,52.15
2023-03-17T19:56:33.956Z,51.36
2023-03-17T19:59:02.430Z,51.35
2023-03-17T20:01:32.189Z,53.01
2023-03-17T20:04:00.465Z,53.49
2023-03-17T20:06:29.716Z,53.68
2023-03-17T20:08:58.039Z,52.42
2023-03-17T20:11:26.317Z,53.02
2023-03-17T20:13:54.303Z,54.40
2023-03-17T20:16:22.353Z,55.54
2023-03-17T20:18:50.485Z,55.17
2023-03-17T20:21:18.674Z,55.30
2023-03-17T20:23:46.631Z,55.08
2023-03-17T20:26:14.905Z,54.50
2023-03-17T20:28:42.827Z,54.87
2023-03-17T20:31:10.862Z,56.23
2023-03-17T20:33:38.817Z,57.38
2023-03-17T20:36:07.060Z,56.56
2023-03-17T20:38:39.100Z,56.81
2023-03-17T20:41:09.086Z,56.89
2023-03-17T20:43:37.769Z,57.00
2023-03-17T20:46:08.728Z,57.16
2023-03-17T20:48:37.367Z,57.56
2023-03-17T20:51:06.627Z,57.31
2023-03-17T20:53:34.751Z,57.46
2023-03-17T20:56:02.935Z,57.77
2023-03-17T20:58:30.791Z,57.74
2023-03-17T21:00:58.712Z,56.39
2023-03-17T21:03:26.841Z,57.03
2023-03-17T21:05:54.814Z,57.27
2023-03-17T21:08:23.508Z,56.94
2023-03-17T21:10:51.665Z,56.49
2023-03-17T21:13:19.530Z,57.15
2023-03-17T21:15:47.545Z,56.36
2023-03-17T21:18:15.682Z,57.92
2023-03-17T21:20:43.875Z,57.42
2023-03-17T21:23:12.023Z,58.68
2023-03-17T21:25:40.001Z,57.76
2023-03-17T21:28:08.381Z,56.90
2023-03-17T21:30:37.262Z,57.71
2023-03-17T21:33:05.609Z,58.72
2023-03-17T21:35:35.682Z,58.99
2023-03-17T21:38:04.045Z,59.10
2023-03-17T21:40:32.421Z,59.24
2023-03-17T21:43:00.908Z,59.40
2023-03-17T21:45:29.002Z,59.10
2023-03-17T21:47:57.050Z,58.63
2023-03-17T21:50:25.934Z,57.65
2023-03-17T21:52:54.229Z,59.06
2023-03-17T21:55:22.183Z,60.30
2023-03-17T21:57:50.625Z,60.65
2023-03-17T22:00:19.040Z,60.69
2023-03-17T22:02:47.154Z,60.60
2023-03-17T22:05:15.300Z,60.42
2023-03-17T22:07:43.931Z,60.34
2023-03-17T22:10:12.573Z,60.47
2023-03-17T22:12:40.956Z,61.04
2023-03-17T22:15:10.554Z,61.41
2023-03-17T22:17:39.839Z,61.53
2023-03-17T22:20:09.222Z,60.75
2023-03-17T22:22:37.199Z,61.02
2023-03-17T22:25:06.371Z,61.64
2023-03-17T22:27:34.700Z,61.48
2023-03-17T22:30:02.875Z,61.92
2023-03-17T22:32:30.912Z,62.12
2023-03-17T22:34:59.194Z,62.57
2023-03-17T22:37:28.108Z,62.60
2023-03-17T22:39:56.382Z,63.10
2023-03-17T22:42:24.259Z,63.04
2023-03-17T22:44:52.232Z,62.99
2023-03-17T22:47:20.116Z,62.86
2023-03-17T22:49:48.130Z,62.75
2023-03-17T22:52:16.134Z,62.53
2023-03-17T22:54:44.216Z,62.49
2023-03-17T22:57:12.284Z,62.16
2023-03-17T22:59:40.654Z,62.51
2023-03-17T23:02:08.651Z,63.04
2023-03-17T23:04:37.008Z,62.85
2023-03-17T23:07:05.688Z,63.20
2023-03-17T23:09:33.772Z,63.25
2023-03-17T23:12:02.661Z,63.42
2023-03-17T23:14:30.635Z,63.41
2023-03-17T23:16:58.564Z,63.46
2023-03-17T23:19:26.568Z,63.55
2023-03-17T23:21:54.435Z,63.62
2023-03-17T23:24:22.403Z,63.62
2023-03-17T23:26:50.782Z,63.37
2023-03-17T23:29:19.167Z,63.88
2023-03-17T23:31:47.611Z,64.05
2023-03-17T23:34:16.024Z,64.42
2023-03-17T23:36:44.096Z,64.52
2023-03-17T23:39:12.058Z,64.58
2023-03-17T23:41:40.025Z,64.52
2023-03-17T23:44:09.222Z,63.97
2023-03-17T23:46:37.904Z,63.90
2023-03-17T23:49:07.425Z,63.96
2023-03-17T23:51:35.800Z,64.09
2023-03-17T23:54:05.191Z,64.45
2023-03-17T23:56:33.700Z,64.24
2023-03-17T23:59:01.958Z,64.47
